createdAt,value
2023-04-14T00:00:13.776Z,67.27
2023-04-14T00:02:47.983Z,66.92
2023-04-14T00:05:20.448Z,67.56
2023-04-14T00:07:51.461Z,67.53
2023-04-14T00:10:22.630Z,67.60
2023-04-14T00:12:54.345Z,67.63
2023-04-14T00:15:27.700Z,67.72
2023-04-14T00:18:01.601Z,67.63
2023-04-14T00:20:32.838Z,67.82
2023-04-14T00:23:04.370Z,67.68
2023-04-14T00:25:34.977Z,67.75
2023-04-14T00:28:05.844Z,68.01
2023-04-14T00:30:36.559Z,67.85
2023-04-14T00:33:09.846Z,67.80
2023-04-14T00:35:40.739Z,68.06
2023-04-14T00:38:12.291Z,68.09
2023-04-14T00:40:43.198Z,68.09
2023-04-14T00:43:14.674Z,68.00
2023-04-14T00:45:49.696Z,68.11
2023-04-14T00:48:24.747Z,68.24
2023-04-14T00:50:55.923Z,68.23
2023-04-14T00:53:27.550Z,68.04
2023-04-14T00:55:58.357Z,68.11
2023-04-14T00:58:29.846Z,67.83
2023-04-14T01:01:01.936Z,68.00
2023-04-14T01:03:36.402Z,68.30
2023-04-14T01:06:08.020Z,68.07
2023-04-14T01:08:39.508Z,68.11
2023-04-14T01:11:17.210Z,68.24
2023-04-14T01:14:01.433Z,67.98
2023-04-14T01:16:35.816Z,67.98
2023-04-14T01:19:35.526Z,67.99
2023-04-14T01:22:09.745Z,68.28
2023-04-14T01:24:54.849Z,68.55
2023-04-14T01:27:38.865Z,68.89
2023-04-14T01:30:41.890Z,68.84
2023-04-14T01:33:21.219Z,68.72
2023-04-14T01:35:55.981Z,69.04
2023-04-14T01:38:31.576Z,68.97
2023-04-14T01:41:08.429Z,69.00
2023-04-14T01:43:45.351Z,69.09
2023-04-14T01:46:20.468Z,69.29
2023-04-14T01:48:54.329Z,68.96
2023-04-14T01:51:27.653Z,68.65
2023-04-14T01:54:00.279Z,68.48
2023-04-14T01:56:32.761Z,68.72
2023-04-14T01:59:05.358Z,69.08
2023-04-14T02:01:37.951Z,69.24
2023-04-14T02:04:11.907Z,68.89
2023-04-14T02:06:46.245Z,68.88
2023-04-14T02:09:18.489Z,68.79
2023-04-14T02:11:52.059Z,68.79
2023-04-14T02:14:24.722Z,68.67
2023-04-14T02:16:57.698Z,69.07
2023-04-14T02:19:33.067Z,68.92
2023-04-14T02:22:06.616Z,69.42
2023-04-14T02:24:37.770Z,69.40
2023-04-14T02:27:13.411Z,69.31
2023-04-14T02:29:48.239Z,69.53
2023-04-14T02:32:26.038Z,69.63
2023-04-14T02:35:12.391Z,69.33
2023-04-14T02:37:46.859Z,69.34
2023-04-14T02:40:21.317Z,69.55
2023-04-14T02:42:59.157Z,69.59
2023-04-14T02:45:33.856Z,69.52
2023-04-14T02:48:11.222Z,69.47
2023-04-14T02:50:49.352Z,69.45
2023-04-14T02:53:26.816Z,69.30
2023-04-14T02:56:14.282Z,69.38
2023-04-14T02:58:48.569Z,71.61
2023-04-14T03:01:23.033Z,69.85
2023-04-14T03:03:58.645Z,69.84
2023-04-14T03:06:33.430Z,71.40
2023-04-14T03:09:07.923Z,70.05
2023-04-14T03:11:41.443Z,69.93
2023-04-14T03:14:14.756Z,69.91
2023-04-14T03:16:46.794Z,69.81
2023-04-14T03:19:18.764Z,70.05
2023-04-14T03:21:54.888Z,69.95
2023-04-14T03:24:31.404Z,69.99
2023-04-14T03:27:07.774Z,69.69
2023-04-14T03:29:44.108Z,70.14
2023-04-14T03:32:18.135Z,69.88
2023-04-14T03:34:55.105Z,70.03
2023-04-14T03:37:30.244Z,70.12
2023-04-14T03:40:09.468Z,70.45
2023-04-14T03:42:45.055Z,70.73
2023-04-14T03:45:22.222Z,70.67
2023-04-14T03:47:57.928Z,70.79
2023-04-14T03:50:33.162Z,70.73
2023-04-14T03:53:09.670Z,70.38
2023-04-14T03:55:41.601Z,70.58
2023-04-14T03:58:16.208Z,70.75
2023-04-14T04:00:50.418Z,70.45
2023-04-14T04:03:23.076Z,70.85
2023-04-14T04:05:54.611Z,70.87
2023-04-14T04:08:30.116Z,70.96
2023-04-14T04:11:01.222Z,71.34
2023-04-14T04:13:34.046Z,71.24
2023-04-14T04:16:05.283Z,71.49
2023-04-14T04:18:44.164Z,71.39
2023-04-14T04:21:17.544Z,71.08
2023-04-14T04:23:56.534Z,71.16
2023-04-14T04:26:30.316Z,71.15
2023-04-14T04:29:02.274Z,70.91
2023-04-14T04:31:34.508Z,70.96
2023-04-14T04:34:06.451Z,70.80
2023-04-14T04:36:40.764Z,70.87
2023-04-14T04:39:14.149Z,71.74
2023-04-14T04:41:46.832Z,71.32
2023-04-14T04:44:17.475Z,71.35
2023-04-14T04:46:55.063Z,71.77
2023-04-14T04:49:31.911Z,71.44
2023-04-14T04:52:06.764Z,71.35
2023-04-14T04:54:40.814Z,71.02
2023-04-14T04:57:12.247Z,71.11
2023-04-14T04:59:43.201Z,71.05
2023-04-14T05:02:13.927Z,70.63
2023-04-14T05:04:44.962Z,70.49
2023-04-14T05:07:15.804Z,70.73
2023-04-14T05:09:49.324Z,70.47
2023-04-14T05:12:20.187Z,70.42
2023-04-14T05:14:52.030Z,70.40
2023-04-14T05:17:23.309Z,69.87
2023-04-14T05:19:54.026Z,69.97
2023-04-14T05:22:24.951Z,69.87
2023-04-14T05:24:58.888Z,69.73
2023-04-14T05:27:29.704Z,69.67
2023-04-14T05:30:03.258Z,69.14
2023-04-14T05:32:34.053Z,69.19
2023-04-14T05:35:05.558Z,68.70
2023-04-14T05:37:36.719Z,66.52
2023-04-14T05:40:12.126Z,64.49
2023-04-14T05:42:43.628Z,62.76
2023-04-14T05:45:14.674Z,60.46
2023-04-14T05:47:46.920Z,57.83
2023-04-14T05:50:19.291Z,55.60
2023-04-14T05:52:52.263Z,54.72
2023-04-14T05:55:26.040Z,54.49
2023-04-14T05:57:56.793Z,55.00
2023-04-14T06:00:28.086Z,55.50
2023-04-14T06:02:59.244Z,55.89
2023-04-14T06:05:30.422Z,57.85
2023-04-14T06:08:01.443Z,58.91
2023-04-14T06:10:35.869Z,59.13
2023-04-14T06:13:08.807Z,59.49
2023-04-14T06:15:40.112Z,59.88
2023-04-14T06:18:10.761Z,60.22
2023-04-14T06:20:42.375Z,60.77
2023-04-14T06:23:13.236Z,60.84
2023-04-14T06:25:46.499Z,61.20
2023-04-14T06:28:17.155Z,61.46
2023-04-14T06:30:48.003Z,61.63
2023-04-14T06:33:18.861Z,62.38
2023-04-14T06:35:49.544Z,62.69
2023-04-14T06:38:20.163Z,62.91
2023-04-14T06:40:54.078Z,62.82
2023-04-14T06:43:25.306Z,63.01
2023-04-14T06:45:56.125Z,63.15
2023-04-14T06:48:27.574Z,63.19
2023-04-14T06:50:58.921Z,63.27
2023-04-14T06:53:31.199Z,63.26
2023-04-14T06:56:09.348Z,63.37
2023-04-14T06:58:40.428Z,63.47
2023-04-14T07:01:11.433Z,63.53
2023-04-14T07:03:42.446Z,63.22
2023-04-14T07:06:16.930Z,63.76
2023-04-14T07:08:48.487Z,63.80
2023-04-14T07:11:21.709Z,63.41
2023-04-14T07:13:52.751Z,63.47
2023-04-14T07:16:23.630Z,63.36
2023-04-14T07:18:54.577Z,63.05
2023-04-14T07:21:26.643Z,63.05
2023-04-14T07:23:57.627Z,63.03
2023-04-14T07:26:31.166Z,63.07
2023-04-14T07:29:02.358Z,63.23
2023-04-14T07:31:34.876Z,63.10
2023-04-14T07:34:06.128Z,63.12
2023-04-14T07:36:37.387Z,63.09
2023-04-14T07:39:08.502Z,62.85
2023-04-14T07:41:41.884Z,62.88
2023-04-14T07:44:12.907Z,62.91
2023-04-14T07:46:44.147Z,62.98
2023-04-14T07:49:15.421Z,62.89
2023-04-14T07:51:46.063Z,63.06
2023-04-14T07:54:17.268Z,63.06
2023-04-14T07:56:51.299Z,62.61
2023-04-14T07:59:21.954Z,62.34
2023-04-14T08:01:52.757Z,62.64
2023-04-14T08:04:23.925Z,62.32
2023-04-14T08:06:54.654Z,62.36
2023-04-14T08:09:25.599Z,62.04
2023-04-14T08:11:59.756Z,62.39
2023-04-14T08:14:30.752Z,60.00
2023-04-14T08:17:01.412Z,61.96
2023-04-14T08:19:33.976Z,62.10
2023-04-14T08:22:04.640Z,61.96
2023-04-14T08:24:37.942Z,61.42
2023-04-14T08:27:11.663Z,61.63
2023-04-14T08:29:42.389Z,61.10
2023-04-14T08:32:13.234Z,61.55
2023-04-14T08:35:35.080Z,61.51
2023-04-14T08:37:36.228Z,61.54
2023-04-14T08:40:13.271Z,61.25
2023-04-14T08:42:48.876Z,60.54
2023-04-14T08:45:20.140Z,61.11
2023-04-14T08:47:54.466Z,61.55
2023-04-14T08:50:35.024Z,61.45
2023-04-14T08:53:07.074Z,61.13
2023-04-14T08:55:43.170Z,61.06
2023-04-14T08:58:22.892Z,60.68
2023-04-14T09:00:55.975Z,60.49
2023-04-14T09:03:28.600Z,60.38
2023-04-14T09:06:00.372Z,60.20
2023-04-14T09:08:34.223Z,60.06
2023-04-14T09:11:08.242Z,60.47
2023-04-14T09:13:43.812Z,60.35
2023-04-14T09:16:15.964Z,60.58
2023-04-14T09:18:47.494Z,60.60
2023-04-14T09:21:29.378Z,60.60
2023-04-14T09:24:13.773Z,60.01
2023-04-14T09:26:45.253Z,60.29
2023-04-14T09:29:19.069Z,60.09
2023-04-14T09:31:50.818Z,59.94
2023-04-14T09:34:23.819Z,60.13
2023-04-14T09:37:07.149Z,60.20
2023-04-14T09:39:38.951Z,59.80
2023-04-14T09:42:11.978Z,59.49
2023-04-14T09:44:55.855Z,58.08
2023-04-14T09:47:27.031Z,59.32
2023-04-14T09:50:04.022Z,59.18
2023-04-14T09:52:42.773Z,59.38
2023-04-14T09:55:15.180Z,59.98
2023-04-14T09:57:48.377Z,59.84
2023-04-14T10:00:26.570Z,59.91
2023-04-14T10:03:01.750Z,60.73
2023-04-14T10:05:34.887Z,60.64
2023-04-14T10:08:06.972Z,60.43
2023-04-14T10:10:37.794Z,60.61
2023-04-14T10:13:08.772Z,60.15
2023-04-14T10:15:43.416Z,60.78
2023-04-14T10:18:15.336Z,60.55
2023-04-14T10:20:47.349Z,59.76
2023-04-14T10:23:21.390Z,59.30
2023-04-14T10:25:53.312Z,58.83
2023-04-14T10:28:27.964Z,59.38
2023-04-14T10:31:04.495Z,59.66
2023-04-14T10:33:35.552Z,60.15
2023-04-14T10:36:07.624Z,59.97
2023-04-14T10:38:43.138Z,58.72
2023-04-14T10:41:14.905Z,59.33
2023-04-14T10:43:47.152Z,59.57
2023-04-14T10:46:21.450Z,58.44
2023-04-14T10:48:52.555Z,58.15
2023-04-14T10:51:23.573Z,57.96
2023-04-14T10:53:55.809Z,58.48
2023-04-14T10:56:29.438Z,58.42
2023-04-14T10:59:01.866Z,58.48
2023-04-14T11:01:35.305Z,58.60
2023-04-14T11:04:21.022Z,58.93
2023-04-14T11:06:57.423Z,58.88
2023-04-14T11:09:38.207Z,58.89
2023-04-14T11:12:29.088Z,57.16
2023-04-14T11:15:05.326Z,58.13
2023-04-14T11:17:41.310Z,57.90
2023-04-14T11:20:18.101Z,58.61
2023-04-14T11:22:51.080Z,58.13
2023-04-14T11:25:25.719Z,57.38
2023-04-14T11:27:56.995Z,56.84
2023-04-14T11:30:28.152Z,56.35
2023-04-14T11:33:02.202Z,57.37
2023-04-14T11:35:33.858Z,57.71
2023-04-14T11:38:04.852Z,58.22
2023-04-14T11:40:36.839Z,58.42
2023-04-14T11:43:09.361Z,57.96
2023-04-14T11:45:45.761Z,58.82
2023-04-14T11:48:22.742Z,58.53
2023-04-14T11:50:53.937Z,57.77
2023-04-14T11:53:24.840Z,57.19
2023-04-14T11:55:57.785Z,57.47
2023-04-14T11:58:30.494Z,57.57
2023-04-14T12:01:04.536Z,58.03
2023-04-14T12:03:39.743Z,53.52
2023-04-14T12:06:10.916Z,57.23
2023-04-14T12:08:41.715Z,56.99
2023-04-14T12:11:16.448Z,55.98
2023-04-14T12:13:48.571Z,56.41
2023-04-14T12:16:23.090Z,56.15
2023-04-14T12:18:57.188Z,56.32
2023-04-14T12:21:27.984Z,55.58
2023-04-14T12:23:59.187Z,55.73
2023-04-14T12:26:29.856Z,54.79
2023-04-14T12:29:02.375Z,55.88
2023-04-14T12:31:33.774Z,56.54
2023-04-14T12:34:08.495Z,57.18
2023-04-14T12:36:50.002Z,56.98
2023-04-14T12:39:22.400Z,58.00
2023-04-14T12:41:55.819Z,57.92
2023-04-14T12:44:30.732Z,58.79
2023-04-14T12:47:04.104Z,58.53
2023-04-14T12:49:40.787Z,58.01
2023-04-14T12:52:13.468Z,58.53
2023-04-14T12:54:52.267Z,59.16
2023-04-14T12:57:24.271Z,59.34
2023-04-14T12:59:55.495Z,59.19
2023-04-14T13:02:38.217Z,58.95
2023-04-14T13:05:31.764Z,58.92
2023-04-14T13:08:02.933Z,59.12
2023-04-14T13:10:33.790Z,59.15
2023-04-14T13:13:05.378Z,59.29
2023-04-14T13:16:13.108Z,59.01
2023-04-14T13:18:30.134Z,59.35
2023-04-14T13:21:06.007Z,58.89
2023-04-14T13:23:37.933Z,59.53
2023-04-14T13:26:11.240Z,59.67
2023-04-14T13:28:42.757Z,60.01
2023-04-14T13:31:15.983Z,60.18
2023-04-14T13:33:47.503Z,60.01
2023-04-14T13:36:25.370Z,59.95
2023-04-14T13:38:57.956Z,60.35
2023-04-14T13:41:29.254Z,60.72
2023-04-14T13:44:38.055Z,62.22
2023-04-14T13:47:24.249Z,62.69
2023-04-14T13:49:59.020Z,62.53
2023-04-14T13:52:38.724Z,62.29
2023-04-14T13:55:13.065Z,62.01
2023-04-14T13:57:43.928Z,61.28
2023-04-14T14:00:17.959Z,60.77
2023-04-14T14:02:49.959Z,60.53
2023-04-14T14:05:21.267Z,60.42
2023-04-14T14:07:52.530Z,60.55
2023-04-14T14:10:29.934Z,61.32
2023-04-14T14:13:08.374Z,61.52
2023-04-14T14:15:41.621Z,61.60
2023-04-14T14:18:13.819Z,61.57
2023-04-14T14:20:45.156Z,62.08
2023-04-14T14:23:16.827Z,62.02
2023-04-14T14:25:51.325Z,62.05
2023-04-14T14:28:24.027Z,61.86
2023-04-14T14:30:55.022Z,61.72
2023-04-14T14:33:25.651Z,61.62
2023-04-14T14:35:57.236Z,61.72
2023-04-14T14:38:28.004Z,61.90
2023-04-14T14:41:03.101Z,61.67
2023-04-14T14:43:34.467Z,61.60
2023-04-14T14:46:06.104Z,61.60
2023-04-14T14:48:39.228Z,61.34
2023-04-14T14:51:11.589Z,61.41
2023-04-14T14:53:42.636Z,61.21
2023-04-14T14:56:16.097Z,61.06
2023-04-14T14:58:47.989Z,60.90
2023-04-14T15:01:19.263Z,60.47
2023-04-14T15:03:53.576Z,59.73
2023-04-14T15:06:28.872Z,59.96
2023-04-14T15:08:59.534Z,60.30
2023-04-14T15:11:35.116Z,59.61
2023-04-14T15:14:06.339Z,59.81
2023-04-14T15:16:37.476Z,59.79
2023-04-14T15:19:08.526Z,59.63
2023-04-14T15:21:39.214Z,59.18
2023-04-14T15:24:10.222Z,58.84
2023-04-14T15:26:43.958Z,59.17
2023-04-14T15:29:14.582Z,58.96
2023-04-14T15:31:45.308Z,59.12
2023-04-14T15:34:16.013Z,58.88
2023-04-14T15:36:47.230Z,59.08
2023-04-14T15:39:18.272Z,58.73
2023-04-14T15:41:52.304Z,58.51
2023-04-14T15:44:23.100Z,58.79
2023-04-14T15:46:53.653Z,58.96
2023-04-14T15:49:24.636Z,59.29
2023-04-14T15:51:57.248Z,59.31
2023-04-14T15:54:28.086Z,59.28
2023-04-14T15:57:02.499Z,59.13
2023-04-14T15:59:34.046Z,59.65
2023-04-14T16:02:04.982Z,59.84
2023-04-14T16:04:36.620Z,59.81
2023-04-14T16:07:07.585Z,60.03
2023-04-14T16:09:38.838Z,60.22
2023-04-14T16:12:12.287Z,60.11
2023-04-14T16:14:43.320Z,60.11
2023-04-14T16:17:14.354Z,60.27
2023-04-14T16:19:45.050Z,60.26
2023-04-14T16:22:15.886Z,60.21
2023-04-14T16:24:46.824Z,60.33
2023-04-14T16:27:20.382Z,60.24
2023-04-14T16:29:51.173Z,60.35
2023-04-14T16:32:21.905Z,60.86
2023-04-14T16:34:52.798Z,60.58
2023-04-14T16:37:25.915Z,60.51
2023-04-14T16:39:57.869Z,60.72
2023-04-14T16:42:31.109Z,60.60
2023-04-14T16:45:01.948Z,60.55
2023-04-14T16:47:32.615Z,60.54
2023-04-14T16:50:03.433Z,60.73
2023-04-14T16:52:35.212Z,60.78
2023-04-14T16:55:06.053Z,61.12
2023-04-14T16:57:39.302Z,61.27
2023-04-14T17:00:12.296Z,61.33
2023-04-14T17:02:43.803Z,61.55
2023-04-14T17:05:16.332Z,61.66
2023-04-14T17:07:47.200Z,61.63
2023-04-14T17:10:18.352Z,61.60
2023-04-14T17:12:52.751Z,61.62
2023-04-14T17:17:54.833Z,61.97
2023-04-14T17:20:25.829Z,61.83
2023-04-14T17:22:57.984Z,62.12
2023-04-14T17:25:29.403Z,62.23
2023-04-14T17:28:02.973Z,62.24
2023-04-14T17:30:34.984Z,62.21
2023-04-14T17:33:10.614Z,62.02
2023-04-14T17:35:41.496Z,62.15
2023-04-14T17:38:12.193Z,61.96
2023-04-14T17:40:42.914Z,62.22
2023-04-14T17:43:16.190Z,62.39
2023-04-14T17:45:50.649Z,62.48
2023-04-14T17:48:21.676Z,62.66
2023-04-14T17:50:53.124Z,62.58
2023-04-14T17:53:23.854Z,62.51
2023-04-14T17:55:55.024Z,62.77
2023-04-14T17:58:28.924Z,62.91
2023-04-14T18:00:59.863Z,63.09
2023-04-14T18:03:30.934Z,62.99
2023-04-14T18:06:01.928Z,63.18
2023-04-14T18:08:32.583Z,63.29
2023-04-14T18:11:03.355Z,63.07
2023-04-14T18:13:36.573Z,63.03
2023-04-14T18:16:08.171Z,63.10
2023-04-14T18:18:39.626Z,62.92
2023-04-14T18:21:10.942Z,63.23
2023-04-14T18:23:42.097Z,63.21
2023-04-14T18:28:49.183Z,63.11
2023-04-14T18:31:20.019Z,62.96
2023-04-14T18:33:51.198Z,63.16
2023-04-14T18:36:21.991Z,63.25
2023-04-14T18:38:52.786Z,63.51
2023-04-14T18:41:23.485Z,63.84
2023-04-14T18:43:56.831Z,63.74
2023-04-14T18:46:27.705Z,64.19
2023-04-14T18:48:58.771Z,64.10
2023-04-14T18:51:29.670Z,64.15
2023-04-14T18:54:03.913Z,64.44
2023-04-14T18:56:34.750Z,64.32
2023-04-14T18:59:08.102Z,64.66
2023-04-14T19:01:39.535Z,64.84
2023-04-14T19:04:10.584Z,64.83
2023-04-14T19:06:41.572Z,64.77
2023-04-14T19:09:12.257Z,64.97
2023-04-14T19:11:43.222Z,64.94
2023-04-14T19:14:16.572Z,65.06
2023-04-14T19:16:48.044Z,64.86
2023-04-14T19:19:19.532Z,65.04
2023-04-14T19:21:50.150Z,64.70
2023-04-14T19:24:21.585Z,64.98
2023-04-14T19:26:52.305Z,64.98
2023-04-14T19:29:25.695Z,64.86
2023-04-14T19:31:56.731Z,65.07
2023-04-14T19:34:27.745Z,65.05
2023-04-14T19:36:58.552Z,65.24
2023-04-14T19:39:29.660Z,65.17
2023-04-14T19:42:00.403Z,65.25
2023-04-14T19:44:35.701Z,65.26
2023-04-14T19:47:06.594Z,65.40
2023-04-14T19:49:37.727Z,65.52
2023-04-14T19:52:09.152Z,65.57
2023-04-14T19:54:40.828Z,65.61
2023-04-14T19:57:11.585Z,65.68
2023-04-14T19:59:45.006Z,65.80
2023-04-14T20:02:15.985Z,65.96
2023-04-14T20:04:48.747Z,66.18
2023-04-14T20:07:19.342Z,66.05
2023-04-14T20:09:50.094Z,66.17
2023-04-14T20:12:21.080Z,66.19
2023-04-14T20:14:54.372Z,66.57
2023-04-14T20:17:27.513Z,66.54
2023-04-14T20:19:58.432Z,66.72
2023-04-14T20:22:29.038Z,66.67
2023-04-14T20:25:00.245Z,67.06
2023-04-14T20:27:31.906Z,66.93
2023-04-14T20:30:05.623Z,67.18
2023-04-14T20:32:36.579Z,66.99
2023-04-14T20:35:08.129Z,66.95
2023-04-14T20:37:38.732Z,67.29
2023-04-14T20:40:10.952Z,67.35
2023-04-14T20:42:41.500Z,67.39
2023-04-14T20:45:15.495Z,67.67
2023-04-14T20:47:46.885Z,67.62
2023-04-14T20:50:17.959Z,67.65
2023-04-14T20:52:49.121Z,67.51
2023-04-14T20:55:21.052Z,67.27
2023-04-14T20:57:51.800Z,67.33
2023-04-14T21:00:25.411Z,67.45
2023-04-14T21:02:56.318Z,67.69
2023-04-14T21:05:27.231Z,68.04
2023-04-14T21:07:58.053Z,67.64
2023-04-14T21:10:29.059Z,68.09
2023-04-14T21:15:26.455Z,68.04
2023-04-14T21:15:56.426Z,68.13
2023-04-14T21:18:27.803Z,68.25
2023-04-14T21:20:58.622Z,68.44
2023-04-14T21:23:29.415Z,68.05
2023-04-14T21:26:00.143Z,67.81
2023-04-14T21:28:31.587Z,68.23
2023-04-14T21:31:05.460Z,67.70
2023-04-14T21:33:36.420Z,68.29
2023-04-14T21:36:07.514Z,67.62
2023-04-14T21:38:38.806Z,68.04
2023-04-14T21:41:10.429Z,67.89
2023-04-14T21:43:41.938Z,68.23
2023-04-14T21:46:15.508Z,67.91
2023-04-14T21:48:46.488Z,67.99
2023-04-14T21:51:18.796Z,67.82
2023-04-14T21:53:49.775Z,68.11
2023-04-14T21:56:20.840Z,68.17
2023-04-14T21:58:51.470Z,68.44
2023-04-14T22:01:25.096Z,68.92
2023-04-14T22:03:56.219Z,69.28
2023-04-14T22:06:28.221Z,68.80
2023-04-14T22:09:00.315Z,68.14
2023-04-14T22:11:31.629Z,68.19
2023-04-14T22:14:03.043Z,68.30
2023-04-14T22:16:37.397Z,68.03
2023-04-14T22:19:08.532Z,70.52
2023-04-14T22:21:39.448Z,68.73
2023-04-14T22:24:10.586Z,68.17
2023-04-14T22:26:41.945Z,68.43
2023-04-14T22:29:12.626Z,68.23
2023-04-14T22:31:46.108Z,68.48
2023-04-14T22:34:18.260Z,68.27
2023-04-14T22:36:50.527Z,68.51
2023-04-14T22:39:22.671Z,68.73
2023-04-14T22:41:54.765Z,68.46
2023-04-14T22:44:26.372Z,68.66
2023-04-14T22:47:01.778Z,68.55
2023-04-14T22:49:33.756Z,68.81
2023-04-14T22:52:06.147Z,68.86
2023-04-14T22:54:38.075Z,69.09
2023-04-14T22:57:11.373Z,69.02
2023-04-14T22:59:43.650Z,69.39
2023-04-14T23:02:18.184Z,69.52
2023-04-14T23:04:50.402Z,69.75
2023-04-14T23:07:22.428Z,69.56
2023-04-14T23:09:53.928Z,68.94
2023-04-14T23:12:28.279Z,68.59
2023-04-14T23:15:00.206Z,68.54
2023-04-14T23:17:36.253Z,68.85
2023-04-14T23:20:07.628Z,69.03
2023-04-14T23:22:38.696Z,69.47
2023-04-14T23:25:10.853Z,69.37
2023-04-14T23:27:41.560Z,69.60
2023-04-14T23:30:13.489Z,69.58
2023-04-14T23:32:49.463Z,69.52
2023-04-14T23:35:20.618Z,69.32
2023-04-14T23:37:51.551Z,69.06
2023-04-14T23:40:22.755Z,68.55
2023-04-14T23:42:56.181Z,68.41
2023-04-14T23:45:27.407Z,68.49
2023-04-14T23:48:00.945Z,68.63
2023-04-14T23:51:01.525Z,69.26
2023-04-14T23:53:22.895Z,68.97
2023-04-14T23:55:54.104Z,68.72
2023-04-14T23:58:26.998Z,68.89
